Ellen Mcallister — WDG3673 — position and weather

sailwx.info

Track history (hours):
 
Tides and Currents Weather Stations Pressure Air Temp Water Temp Dewpoint Dewpoint Depression Visibility Wind Speed Wind Dir Waves Ship Positions

Ellen Mcallister

Owner: McAllister Towing & Transportation Inc., Staten Island, NY. More information available from US FCC via Universal Licensing System and Coast Guard Vessel Documentation Center.

Last reported at 2018-Jan-23 03:30 UTC. Time now 2018-Jan-23 03:58 UTC.
Position N 40°38' W 074°10'.

Length 35 m; draft 5 m.

Type: Tug. MMSI: 366836590.

Date/timePositionNaut miles runAvg speedWind from/ knotsBaromVisibWave heightAir tempDewpointWater temp
2018-Jan-23 03:30N 40°38' W 074°10'0 0.0
2018-Jan-23 03:00N 40°38' W 074°10'0 0.0
2018-Jan-23 02:30N 40°38' W 074°10'0 0.0
2018-Jan-23 02:00N 40°38' W 074°10'0 0.0
2018-Jan-23 01:29N 40°38' W 074°10'0 0.0
2018-Jan-23 01:01N 40°38' W 074°10'3 5.9
2018-Jan-23 00:30N 40°41' W 074°08'1 1.7
2018-Jan-23 00:00N 40°42' W 074°08'0 0.5
2018-Jan-22 23:30N 40°42' W 074°08'3 6.1
2018-Jan-22 22:58N 40°38' W 074°10'0 1.0
2018-Jan-22 22:30N 40°39' W 074°10'4 1.3
2018-Jan-22 19:25N 40°35' W 074°12'0 0.1
2018-Jan-22 18:58N 40°35' W 074°13'0 0.4
2018-Jan-22 18:20N 40°35' W 074°12'0 0.0
2018-Jan-22 18:00N 40°35' W 074°12'0 0.0
2018-Jan-22 17:28N 40°35' W 074°12'0 0.0
2018-Jan-22 15:14N 40°35' W 074°12'0 0.0
2018-Jan-22 10:41N 40°35' W 074°12'0 0.0
2018-Jan-22 10:24N 40°35' W 074°12'0 0.0
2018-Jan-22 08:17N 40°35' W 074°12'0 0.0
2018-Jan-22 08:00N 40°35' W 074°12'0 0.0
2018-Jan-22 00:00N 40°35' W 074°12'0 0.6
2018-Jan-21 23:30N 40°35' W 074°13'1 3.0
2018-Jan-21 22:59N 40°36' W 074°12'3 6.9
2018-Jan-21 22:30N 40°39' W 074°09'2 3.2
2018-Jan-21 22:00N 40°40' W 074°08'0 0.0
2018-Jan-21 21:30N 40°40' W 074°08'0 0.0
2018-Jan-21 21:00N 40°40' W 074°08'0 0.0
2018-Jan-21 20:30N 40°40' W 074°08'0 0.0
2018-Jan-21 20:00N 40°40' W 074°08'0 0.0
2018-Jan-21 19:30N 40°40' W 074°08'0 0.0
2018-Jan-21 18:59N 40°40' W 074°08'0 0.0
2018-Jan-21 18:30N 40°40' W 074°08'0 0.0
2018-Jan-21 17:59N 40°40' W 074°08'0 0.0
2018-Jan-21 17:30N 40°40' W 074°08'0 0.0
2018-Jan-21 17:00N 40°40' W 074°08'0 0.0
2018-Jan-21 16:30N 40°40' W 074°08'0 0.0
2018-Jan-21 16:00N 40°40' W 074°08'0 0.0
2018-Jan-21 15:30N 40°40' W 074°08'0 0.0
2018-Jan-21 15:00N 40°40' W 074°08'0 0.0
2018-Jan-21 14:30N 40°40' W 074°08'0 0.0
2018-Jan-21 14:00N 40°40' W 074°08'0 0.0
2018-Jan-21 13:28N 40°40' W 074°08'0 0.0
2018-Jan-21 12:59N 40°40' W 074°08'0 0.0
2018-Jan-21 12:30N 40°40' W 074°08'0 0.0
2018-Jan-21 11:59N 40°40' W 074°08'0 0.4
2018-Jan-21 11:30N 40°40' W 074°08'2 3.3
2018-Jan-21 11:00N 40°39' W 074°09'1 2.2
2018-Jan-21 10:30N 40°38' W 074°08'1 2.1
2018-Jan-21 10:00N 40°38' W 074°09'1 2.0
2018-Jan-21 09:30N 40°39' W 074°09'0 0.8
2018-Jan-21 09:00N 40°40' W 074°09'2 3.3
2018-Jan-21 08:30N 40°38' W 074°10'0 0.0
2018-Jan-21 08:00N 40°38' W 074°10'0 0.0
2018-Jan-21 07:30N 40°38' W 074°10'0 0.0
2018-Jan-21 07:00N 40°38' W 074°10'0 0.0
2018-Jan-21 06:29N 40°38' W 074°10'0 0.0
2018-Jan-21 06:00N 40°38' W 074°10'0 0.0
2018-Jan-21 05:30N 40°38' W 074°10'0 0.0
2018-Jan-21 04:59N 40°38' W 074°10'0 0.0
2018-Jan-21 04:29N 40°38' W 074°10'0 0.5
2018-Jan-21 04:00N 40°39' W 074°10'4 8.0
2018-Jan-21 03:30N 40°35' W 074°13'2 3.6
2018-Jan-21 02:55N 40°33' W 074°14'0 0.0
2018-Jan-21 02:28N 40°33' W 074°14'0 0.1
2018-Jan-21 01:33N 40°33' W 074°14'0 0.1
2018-Jan-21 01:05N 40°33' W 074°14'1 2.6
2018-Jan-21 00:52N 40°33' W 074°15'1 0.3
2018-Jan-20 23:13N 40°33' W 074°14'0 0.0
2018-Jan-20 23:00N 40°33' W 074°14'2 0.5
2018-Jan-20 17:40N 40°35' W 074°12'0 0.5
2018-Jan-20 16:50N 40°35' W 074°13'1 2.3
2018-Jan-20 16:21N 40°36' W 074°12'2 5.7
2018-Jan-20 16:00N 40°38' W 074°12'2 3.3
2018-Jan-20 15:30N 40°38' W 074°10'0 0.0
2018-Jan-20 15:00N 40°38' W 074°10'0 0.0
2018-Jan-20 14:30N 40°38' W 074°10'1 1.8
2018-Jan-20 14:00N 40°39' W 074°09'2 4.1
2018-Jan-20 13:30N 40°41' W 074°08'1 1.6
2018-Jan-20 12:59N 40°40' W 074°09'0 0.4
2018-Jan-20 12:30N 40°40' W 074°09'2 3.6
2018-Jan-20 12:00N 40°41' W 074°08'0 0.3
2018-Jan-20 11:30N 40°41' W 074°08'3 6.2
2018-Jan-20 11:00N 40°39' W 074°06'2 4.3
2018-Jan-20 10:29N 40°39' W 074°09'1 2.1
2018-Jan-20 10:00N 40°39' W 074°10'1 1.9
2018-Jan-20 09:30N 40°39' W 074°11'1 2.2
2018-Jan-20 09:00N 40°38' W 074°10'0 0.0
2018-Jan-20 08:30N 40°38' W 074°10'0 0.0
2018-Jan-20 08:00N 40°38' W 074°10'0 0.0
2018-Jan-20 07:30N 40°38' W 074°10'0 0.1
2018-Jan-20 07:00N 40°38' W 074°10'0 0.1
2018-Jan-20 06:30N 40°38' W 074°10'0 0.0
2018-Jan-20 06:00N 40°38' W 074°10'0 0.0
2018-Jan-20 05:31N 40°38' W 074°10'0 0.0
2018-Jan-20 05:00N 40°38' W 074°10'0 0.0
2018-Jan-20 04:30N 40°38' W 074°10'0 0.0
2018-Jan-20 04:00N 40°38' W 074°10'0 0.0
2018-Jan-20 03:30N 40°38' W 074°10'0 0.0
2018-Jan-20 03:00N 40°38' W 074°10'0 0.0
2018-Jan-20 02:30N 40°38' W 074°10'0 0.0
2018-Jan-20 02:00N 40°38' W 074°10'0 0.0
2018-Jan-20 01:30N 40°38' W 074°10'0 0.0
2018-Jan-20 01:00N 40°38' W 074°10'0 0.0
2018-Jan-20 00:30N 40°38' W 074°10'0 0.0
2018-Jan-20 00:00N 40°38' W 074°10'0 0.0
2018-Jan-19 23:31N 40°38' W 074°10'0 0.0
2018-Jan-19 23:00N 40°38' W 074°10'3 5.1
2018-Jan-19 22:30N 40°41' W 074°09'0 0.2
2018-Jan-19 22:00N 40°41' W 074°09'2 4.6
2018-Jan-19 21:30N 40°39' W 074°09'3 5.4
2018-Jan-19 21:00N 40°39' W 074°06'0 0.0
2018-Jan-19 20:31N 40°39' W 074°06'3 4.9
2018-Jan-19 20:00N 40°39' W 074°09'1 2.2
2018-Jan-19 19:30N 40°40' W 074°08'0 0.0
2018-Jan-19 19:00N 40°40' W 074°08'0 0.0
2018-Jan-19 18:30N 40°40' W 074°08'0 0.0
2018-Jan-19 18:00N 40°40' W 074°08'0 0.0
2018-Jan-19 17:31N 40°40' W 074°08'4 6.4
2018-Jan-19 16:55N 40°38' W 074°12'2 4.0
2018-Jan-19 16:30N 40°36' W 074°12'0 0.0
2018-Jan-19 16:00N 40°36' W 074°12'0 0.0
2018-Jan-19 15:30N 40°36' W 074°12'1 2.4
2018-Jan-19 14:59N 40°35' W 074°13'0 0.0
2018-Jan-19 14:30N 40°35' W 074°13'0 0.9
2018-Jan-19 13:59N 40°35' W 074°12'2 5.0
2018-Jan-19 13:30N 40°38' W 074°12'3 4.7
2018-Jan-19 12:56N 40°39' W 074°09'1 2.8
2018-Jan-19 12:28N 40°39' W 074°07'3 6.4
2018-Jan-19 12:00N 40°39' W 074°11'0 0.6
2018-Jan-19 11:30N 40°39' W 074°11'1 1.9
2018-Jan-19 11:00N 40°39' W 074°10'3 5.4
2018-Jan-19 10:30N 40°39' W 074°07'3 6.0
2018-Jan-19 10:00N 40°38' W 074°03'5 9.2
2018-Jan-19 09:30N 40°38' W 074°09'1 1.3
2018-Jan-19 09:00N 40°38' W 074°10'0 0.0
2018-Jan-19 08:30N 40°38' W 074°10'0 0.0
2018-Jan-19 08:01N 40°38' W 074°10'0 0.0
2018-Jan-19 07:30N 40°38' W 074°10'1 2.1
2018-Jan-19 07:00N 40°39' W 074°08'0 0.9
2018-Jan-19 06:30N 40°39' W 074°09'1 2.0
2018-Jan-19 05:59N 40°40' W 074°09'0 0.4
2018-Jan-19 05:30N 40°40' W 074°09'1 2.6
2018-Jan-19 05:00N 40°38' W 074°10'0 0.0
2018-Jan-19 04:30N 40°38' W 074°10'0 0.2
2018-Jan-19 04:00N 40°38' W 074°10'1 2.3
2018-Jan-19 03:30N 40°39' W 074°08'2 3.4
2018-Jan-19 03:00N 40°40' W 074°08'2 3.3
2018-Jan-19 02:30N 40°42' W 074°09'0 0.0
2018-Jan-19 01:59N 40°42' W 074°09'1 3.0
2018-Jan-19 01:30N 40°40' W 074°08'2 4.9
2018-Jan-19 01:00N 40°38' W 074°10'0 0.0
2018-Jan-19 00:30N 40°38' W 074°10'0 0.0
2018-Jan-18 23:59N 40°38' W 074°10'0 0.0
2018-Jan-18 23:30N 40°38' W 074°10'0 0.0
2018-Jan-18 22:59N 40°38' W 074°10'0 0.0
2018-Jan-18 22:30N 40°38' W 074°10'0 0.0
2018-Jan-18 22:00N 40°38' W 074°10'0 0.0
2018-Jan-18 21:30N 40°38' W 074°10'0 0.0
2018-Jan-18 21:00N 40°38' W 074°10'1 1.7
2018-Jan-18 20:30N 40°39' W 074°09'1 2.5
2018-Jan-18 20:00N 40°40' W 074°08'0 0.1
2018-Jan-18 19:29N 40°40' W 074°08'0 0.0
2018-Jan-18 18:59N 40°40' W 074°08'2 3.6
2018-Jan-18 18:30N 40°39' W 074°09'1 1.2
2018-Jan-18 17:59N 40°38' W 074°10'0 0.0
2018-Jan-18 17:30N 40°38' W 074°10'0 0.0
2018-Jan-18 17:00N 40°38' W 074°10'0 0.0
2018-Jan-18 16:30N 40°38' W 074°10'0 0.0
2018-Jan-18 15:59N 40°38' W 074°10'0 0.0
2018-Jan-18 15:30N 40°38' W 074°10'0 0.0
2018-Jan-18 14:59N 40°38' W 074°10'0 0.0
2018-Jan-18 14:30N 40°38' W 074°10'0 0.0
2018-Jan-18 14:00N 40°38' W 074°10'3 5.8
2018-Jan-18 13:30N 40°41' W 074°08'1 2.0
2018-Jan-18 12:59N 40°42' W 074°09'1 0.4
2018-Jan-18 10:28N 40°41' W 074°08'3 5.5
2018-Jan-18 10:00N 40°39' W 074°08'4 7.5
2018-Jan-18 09:30N 40°39' W 074°04'1 2.2
2018-Jan-18 08:59N 40°40' W 074°04'3 5.0
2018-Jan-18 08:21N 40°39' W 074°08'1 0.6
2018-Jan-18 06:08N 40°38' W 074°10'110.3
2018-Jan-18 06:00N 40°39' W 074°08'0 0.6
2018-Jan-18 05:30N 40°39' W 074°08'3 5.3
2018-Jan-18 05:00N 40°41' W 074°08'1 1.4
2018-Jan-18 04:27N 40°42' W 074°08'3 7.0
2018-Jan-18 04:00N 40°39' W 074°08'510.3
2018-Jan-18 03:31N 40°41' W 074°02'3 6.5
2018-Jan-18 03:00N 40°42' W 073°59'0 0.1
2018-Jan-18 02:30N 40°42' W 073°58'1 2.6
2018-Jan-18 02:00N 40°42' W 074°00'510.1
2018-Jan-18 01:30N 40°39' W 074°05'3 6.7
2018-Jan-18 01:00N 40°38' W 074°10'0 0.0
2018-Jan-18 00:01N 40°38' W 074°10'0 0.0
2018-Jan-17 23:57N 40°38' W 074°10'  
Track history (hours):
 
Tides and Currents Weather Stations Pressure Air Temp Water Temp Dewpoint Dewpoint Depression Visibility Wind Speed Wind Dir Waves Ship Positions

Ellen Mcallister

Owner: McAllister Towing & Transportation Inc., Staten Island, NY. More information available from US FCC via Universal Licensing System and Coast Guard Vessel Documentation Center.

Last reported at 2018-Jan-23 03:30 UTC. Time now 2018-Jan-23 03:58 UTC.
Position N 40°38' W 074°10'.

Length 35 m; draft 5 m.

Type: Tug. MMSI: 366836590.

Date/timePositionNaut miles runAvg speedWind from/ knotsBaromVisibWave heightAir tempDewpointWater temp
2018-Jan-23 03:30N 40°38' W 074°10'0 0.0
2018-Jan-23 03:00N 40°38' W 074°10'0 0.0
2018-Jan-23 02:30N 40°38' W 074°10'0 0.0
2018-Jan-23 02:00N 40°38' W 074°10'0 0.0
2018-Jan-23 01:29N 40°38' W 074°10'0 0.0
2018-Jan-23 01:01N 40°38' W 074°10'3 5.9
2018-Jan-23 00:30N 40°41' W 074°08'1 1.7
2018-Jan-23 00:00N 40°42' W 074°08'0 0.5
2018-Jan-22 23:30N 40°42' W 074°08'3 6.1
2018-Jan-22 22:58N 40°38' W 074°10'0 1.0
2018-Jan-22 22:30N 40°39' W 074°10'4 1.3
2018-Jan-22 19:25N 40°35' W 074°12'0 0.1
2018-Jan-22 18:58N 40°35' W 074°13'0 0.4
2018-Jan-22 18:20N 40°35' W 074°12'0 0.0
2018-Jan-22 18:00N 40°35' W 074°12'0 0.0
2018-Jan-22 17:28N 40°35' W 074°12'0 0.0
2018-Jan-22 15:14N 40°35' W 074°12'0 0.0
2018-Jan-22 10:41N 40°35' W 074°12'0 0.0
2018-Jan-22 10:24N 40°35' W 074°12'0 0.0
2018-Jan-22 08:17N 40°35' W 074°12'0 0.0
2018-Jan-22 08:00N 40°35' W 074°12'0 0.0
2018-Jan-22 00:00N 40°35' W 074°12'0 0.6
2018-Jan-21 23:30N 40°35' W 074°13'1 3.0
2018-Jan-21 22:59N 40°36' W 074°12'3 6.9
2018-Jan-21 22:30N 40°39' W 074°09'2 3.2
2018-Jan-21 22:00N 40°40' W 074°08'0 0.0
2018-Jan-21 21:30N 40°40' W 074°08'0 0.0
2018-Jan-21 21:00N 40°40' W 074°08'0 0.0
2018-Jan-21 20:30N 40°40' W 074°08'0 0.0
2018-Jan-21 20:00N 40°40' W 074°08'0 0.0
2018-Jan-21 19:30N 40°40' W 074°08'0 0.0
2018-Jan-21 18:59N 40°40' W 074°08'0 0.0
2018-Jan-21 18:30N 40°40' W 074°08'0 0.0
2018-Jan-21 17:59N 40°40' W 074°08'0 0.0
2018-Jan-21 17:30N 40°40' W 074°08'0 0.0
2018-Jan-21 17:00N 40°40' W 074°08'0 0.0
2018-Jan-21 16:30N 40°40' W 074°08'0 0.0
2018-Jan-21 16:00N 40°40' W 074°08'0 0.0
2018-Jan-21 15:30N 40°40' W 074°08'0 0.0
2018-Jan-21 15:00N 40°40' W 074°08'0 0.0
2018-Jan-21 14:30N 40°40' W 074°08'0 0.0
2018-Jan-21 14:00N 40°40' W 074°08'0 0.0
2018-Jan-21 13:28N 40°40' W 074°08'0 0.0
2018-Jan-21 12:59N 40°40' W 074°08'0 0.0
2018-Jan-21 12:30N 40°40' W 074°08'0 0.0
2018-Jan-21 11:59N 40°40' W 074°08'0 0.4
2018-Jan-21 11:30N 40°40' W 074°08'2 3.3
2018-Jan-21 11:00N 40°39' W 074°09'1 2.2
2018-Jan-21 10:30N 40°38' W 074°08'1 2.1
2018-Jan-21 10:00N 40°38' W 074°09'1 2.0
2018-Jan-21 09:30N 40°39' W 074°09'0 0.8
2018-Jan-21 09:00N 40°40' W 074°09'2 3.3
2018-Jan-21 08:30N 40°38' W 074°10'0 0.0
2018-Jan-21 08:00N 40°38' W 074°10'0 0.0
2018-Jan-21 07:30N 40°38' W 074°10'0 0.0
2018-Jan-21 07:00N 40°38' W 074°10'0 0.0
2018-Jan-21 06:29N 40°38' W 074°10'0 0.0
2018-Jan-21 06:00N 40°38' W 074°10'0 0.0
2018-Jan-21 05:30N 40°38' W 074°10'0 0.0
2018-Jan-21 04:59N 40°38' W 074°10'0 0.0
2018-Jan-21 04:29N 40°38' W 074°10'0 0.5
2018-Jan-21 04:00N 40°39' W 074°10'4 8.0
2018-Jan-21 03:30N 40°35' W 074°13'2 3.6
2018-Jan-21 02:55N 40°33' W 074°14'0 0.0
2018-Jan-21 02:28N 40°33' W 074°14'0 0.1
2018-Jan-21 01:33N 40°33' W 074°14'0 0.1
2018-Jan-21 01:05N 40°33' W 074°14'1 2.6
2018-Jan-21 00:52N 40°33' W 074°15'1 0.3
2018-Jan-20 23:13N 40°33' W 074°14'0 0.0
2018-Jan-20 23:00N 40°33' W 074°14'2 0.5
2018-Jan-20 17:40N 40°35' W 074°12'0 0.5
2018-Jan-20 16:50N 40°35' W 074°13'1 2.3
2018-Jan-20 16:21N 40°36' W 074°12'2 5.7
2018-Jan-20 16:00N 40°38' W 074°12'2 3.3
2018-Jan-20 15:30N 40°38' W 074°10'0 0.0
2018-Jan-20 15:00N 40°38' W 074°10'0 0.0
2018-Jan-20 14:30N 40°38' W 074°10'1 1.8
2018-Jan-20 14:00N 40°39' W 074°09'2 4.1
2018-Jan-20 13:30N 40°41' W 074°08'1 1.6
2018-Jan-20 12:59N 40°40' W 074°09'0 0.4
2018-Jan-20 12:30N 40°40' W 074°09'2 3.6
2018-Jan-20 12:00N 40°41' W 074°08'0 0.3
2018-Jan-20 11:30N 40°41' W 074°08'3 6.2
2018-Jan-20 11:00N 40°39' W 074°06'2 4.3
2018-Jan-20 10:29N 40°39' W 074°09'1 2.1
2018-Jan-20 10:00N 40°39' W 074°10'1 1.9
2018-Jan-20 09:30N 40°39' W 074°11'1 2.2
2018-Jan-20 09:00N 40°38' W 074°10'0 0.0
2018-Jan-20 08:30N 40°38' W 074°10'0 0.0
2018-Jan-20 08:00N 40°38' W 074°10'0 0.0
2018-Jan-20 07:30N 40°38' W 074°10'0 0.1
2018-Jan-20 07:00N 40°38' W 074°10'0 0.1
2018-Jan-20 06:30N 40°38' W 074°10'0 0.0
2018-Jan-20 06:00N 40°38' W 074°10'0 0.0
2018-Jan-20 05:31N 40°38' W 074°10'0 0.0
2018-Jan-20 05:00N 40°38' W 074°10'0 0.0
2018-Jan-20 04:30N 40°38' W 074°10'0 0.0
2018-Jan-20 04:00N 40°38' W 074°10'0 0.0
2018-Jan-20 03:30N 40°38' W 074°10'0 0.0
2018-Jan-20 03:00N 40°38' W 074°10'0 0.0
2018-Jan-20 02:30N 40°38' W 074°10'0 0.0
2018-Jan-20 02:00N 40°38' W 074°10'0 0.0
2018-Jan-20 01:30N 40°38' W 074°10'0 0.0
2018-Jan-20 01:00N 40°38' W 074°10'0 0.0
2018-Jan-20 00:30N 40°38' W 074°10'0 0.0
2018-Jan-20 00:00N 40°38' W 074°10'0 0.0
2018-Jan-19 23:31N 40°38' W 074°10'0 0.0
2018-Jan-19 23:00N 40°38' W 074°10'3 5.1
2018-Jan-19 22:30N 40°41' W 074°09'0 0.2
2018-Jan-19 22:00N 40°41' W 074°09'2 4.6
2018-Jan-19 21:30N 40°39' W 074°09'3 5.4
2018-Jan-19 21:00N 40°39' W 074°06'0 0.0
2018-Jan-19 20:31N 40°39' W 074°06'3 4.9
2018-Jan-19 20:00N 40°39' W 074°09'1 2.2
2018-Jan-19 19:30N 40°40' W 074°08'0 0.0
2018-Jan-19 19:00N 40°40' W 074°08'0 0.0
2018-Jan-19 18:30N 40°40' W 074°08'0 0.0
2018-Jan-19 18:00N 40°40' W 074°08'0 0.0
2018-Jan-19 17:31N 40°40' W 074°08'4 6.4
2018-Jan-19 16:55N 40°38' W 074°12'2 4.0
2018-Jan-19 16:30N 40°36' W 074°12'0 0.0
2018-Jan-19 16:00N 40°36' W 074°12'0 0.0
2018-Jan-19 15:30N 40°36' W 074°12'1 2.4
2018-Jan-19 14:59N 40°35' W 074°13'0 0.0
2018-Jan-19 14:30N 40°35' W 074°13'0 0.9
2018-Jan-19 13:59N 40°35' W 074°12'2 5.0
2018-Jan-19 13:30N 40°38' W 074°12'3 4.7
2018-Jan-19 12:56N 40°39' W 074°09'1 2.8
2018-Jan-19 12:28N 40°39' W 074°07'3 6.4
2018-Jan-19 12:00N 40°39' W 074°11'0 0.6
2018-Jan-19 11:30N 40°39' W 074°11'1 1.9
2018-Jan-19 11:00N 40°39' W 074°10'3 5.4
2018-Jan-19 10:30N 40°39' W 074°07'3 6.0
2018-Jan-19 10:00N 40°38' W 074°03'5 9.2
2018-Jan-19 09:30N 40°38' W 074°09'1 1.3
2018-Jan-19 09:00N 40°38' W 074°10'0 0.0
2018-Jan-19 08:30N 40°38' W 074°10'0 0.0
2018-Jan-19 08:01N 40°38' W 074°10'0 0.0
2018-Jan-19 07:30N 40°38' W 074°10'1 2.1
2018-Jan-19 07:00N 40°39' W 074°08'0 0.9
2018-Jan-19 06:30N 40°39' W 074°09'1 2.0
2018-Jan-19 05:59N 40°40' W 074°09'0 0.4
2018-Jan-19 05:30N 40°40' W 074°09'1 2.6
2018-Jan-19 05:00N 40°38' W 074°10'0 0.0
2018-Jan-19 04:30N 40°38' W 074°10'0 0.2
2018-Jan-19 04:00N 40°38' W 074°10'1 2.3
2018-Jan-19 03:30N 40°39' W 074°08'2 3.4
2018-Jan-19 03:00N 40°40' W 074°08'2 3.3
2018-Jan-19 02:30N 40°42' W 074°09'0 0.0
2018-Jan-19 01:59N 40°42' W 074°09'1 3.0
2018-Jan-19 01:30N 40°40' W 074°08'2 4.9
2018-Jan-19 01:00N 40°38' W 074°10'0 0.0
2018-Jan-19 00:30N 40°38' W 074°10'0 0.0
2018-Jan-18 23:59N 40°38' W 074°10'0 0.0
2018-Jan-18 23:30N 40°38' W 074°10'0 0.0
2018-Jan-18 22:59N 40°38' W 074°10'0 0.0
2018-Jan-18 22:30N 40°38' W 074°10'0 0.0
2018-Jan-18 22:00N 40°38' W 074°10'0 0.0
2018-Jan-18 21:30N 40°38' W 074°10'0 0.0
2018-Jan-18 21:00N 40°38' W 074°10'1 1.7
2018-Jan-18 20:30N 40°39' W 074°09'1 2.5
2018-Jan-18 20:00N 40°40' W 074°08'0 0.1
2018-Jan-18 19:29N 40°40' W 074°08'0 0.0
2018-Jan-18 18:59N 40°40' W 074°08'2 3.6
2018-Jan-18 18:30N 40°39' W 074°09'1 1.2
2018-Jan-18 17:59N 40°38' W 074°10'0 0.0
2018-Jan-18 17:30N 40°38' W 074°10'0 0.0
2018-Jan-18 17:00N 40°38' W 074°10'0 0.0
2018-Jan-18 16:30N 40°38' W 074°10'0 0.0
2018-Jan-18 15:59N 40°38' W 074°10'0 0.0
2018-Jan-18 15:30N 40°38' W 074°10'0 0.0
2018-Jan-18 14:59N 40°38' W 074°10'0 0.0
2018-Jan-18 14:30N 40°38' W 074°10'0 0.0
2018-Jan-18 14:00N 40°38' W 074°10'3 5.8
2018-Jan-18 13:30N 40°41' W 074°08'1 2.0
2018-Jan-18 12:59N 40°42' W 074°09'1 0.4
2018-Jan-18 10:28N 40°41' W 074°08'3 5.5
2018-Jan-18 10:00N 40°39' W 074°08'4 7.5
2018-Jan-18 09:30N 40°39' W 074°04'1 2.2
2018-Jan-18 08:59N 40°40' W 074°04'3 5.0
2018-Jan-18 08:21N 40°39' W 074°08'1 0.6
2018-Jan-18 06:08N 40°38' W 074°10'110.3
2018-Jan-18 06:00N 40°39' W 074°08'0 0.6
2018-Jan-18 05:30N 40°39' W 074°08'3 5.3
2018-Jan-18 05:00N 40°41' W 074°08'1 1.4
2018-Jan-18 04:27N 40°42' W 074°08'3 7.0
2018-Jan-18 04:00N 40°39' W 074°08'510.3
2018-Jan-18 03:31N 40°41' W 074°02'3 6.5
2018-Jan-18 03:00N 40°42' W 073°59'0 0.1
2018-Jan-18 02:30N 40°42' W 073°58'1 2.6
2018-Jan-18 02:00N 40°42' W 074°00'510.1
2018-Jan-18 01:30N 40°39' W 074°05'3 6.7
2018-Jan-18 01:00N 40°38' W 074°10'0 0.0
2018-Jan-18 00:01N 40°38' W 074°10'0 0.0
2018-Jan-17 23:57N 40°38' W 074°10'  

Dump ship's entire track history